sensor_id;sensor_type;location;lat;lon;timestamp;P1;durP1;ratioP1;P2;durP2;ratioP2
15383;SDS011;7790;53.022;12.968;2022-12-29T00:02:16;1.10;;;1.00;;
15383;SDS011;7790;53.022;12.968;2022-12-29T00:06:17;1.40;;;0.90;;
15383;SDS011;7790;53.022;12.968;2022-12-29T00:10:19;1.80;;;1.00;;
15383;SDS011;7790;53.022;12.968;2022-12-29T00:14:20;1.43;;;0.90;;
15383;SDS011;7790;53.022;12.968;2022-12-29T00:18:40;0.87;;;0.87;;
15383;SDS011;7790;53.022;12.968;2022-12-29T00:22:41;2.00;;;1.40;;
15383;SDS011;7790;53.022;12.968;2022-12-29T00:31:21;0.70;;;0.70;;
15383;SDS011;7790;53.022;12.968;2022-12-29T00:35:50;1.13;;;0.90;;
15383;SDS011;7790;53.022;12.968;2022-12-29T00:39:53;1.23;;;1.00;;
15383;SDS011;7790;53.022;12.968;2022-12-29T00:44:29;0.70;;;0.70;;
15383;SDS011;7790;53.022;12.968;2022-12-29T00:48:31;1.90;;;1.10;;
15383;SDS011;7790;53.022;12.968;2022-12-29T00:52:51;1.20;;;1.10;;
15383;SDS011;7790;53.022;12.968;2022-12-29T00:56:52;1.10;;;1.00;;
15383;SDS011;7790;53.022;12.968;2022-12-29T01:01:03;1.40;;;0.70;;
15383;SDS011;7790;53.022;12.968;2022-12-29T01:05:05;1.00;;;0.90;;
15383;SDS011;7790;53.022;12.968;2022-12-29T01:09:06;1.30;;;0.80;;
15383;SDS011;7790;53.022;12.968;2022-12-29T01:13:26;0.80;;;0.70;;
15383;SDS011;7790;53.022;12.968;2022-12-29T01:17:27;1.70;;;0.90;;
15383;SDS011;7790;53.022;12.968;2022-12-29T01:21:29;1.10;;;1.00;;
15383;SDS011;7790;53.022;12.968;2022-12-29T01:25:30;1.00;;;0.80;;
15383;SDS011;7790;53.022;12.968;2022-12-29T01:29:33;3.70;;;0.90;;
15383;SDS011;7790;53.022;12.968;2022-12-29T01:33:34;1.00;;;0.90;;
15383;SDS011;7790;53.022;12.968;2022-12-29T01:37:35;1.50;;;0.80;;
15383;SDS011;7790;53.022;12.968;2022-12-29T01:41:36;0.80;;;0.80;;
15383;SDS011;7790;53.022;12.968;2022-12-29T01:45:44;1.00;;;1.00;;
15383;SDS011;7790;53.022;12.968;2022-12-29T01:49:48;0.60;;;0.60;;
15383;SDS011;7790;53.022;12.968;2022-12-29T01:53:49;0.67;;;0.67;;
15383;SDS011;7790;53.022;12.968;2022-12-29T01:57:51;0.77;;;0.60;;
15383;SDS011;7790;53.022;12.968;2022-12-29T02:01:53;1.13;;;0.80;;
15383;SDS011;7790;53.022;12.968;2022-12-29T02:09:56;0.70;;;0.70;;
15383;SDS011;7790;53.022;12.968;2022-12-29T02:13:58;2.23;;;0.83;;
15383;SDS011;7790;53.022;12.968;2022-12-29T02:18:09;0.80;;;0.80;;
15383;SDS011;7790;53.022;12.968;2022-12-29T02:26:35;0.63;;;0.63;;
15383;SDS011;7790;53.022;12.968;2022-12-29T02:39:21;0.90;;;0.90;;
15383;SDS011;7790;53.022;12.968;2022-12-29T02:47:40;0.87;;;0.87;;
15383;SDS011;7790;53.022;12.968;2022-12-29T02:55:51;0.47;;;0.47;;
15383;SDS011;7790;53.022;12.968;2022-12-29T02:59:53;0.73;;;0.73;;
15383;SDS011;7790;53.022;12.968;2022-12-29T03:04:06;1.33;;;0.80;;
15383;SDS011;7790;53.022;12.968;2022-12-29T03:20:38;1.50;;;0.77;;
15383;SDS011;7790;53.022;12.968;2022-12-29T03:24:49;1.10;;;0.93;;
15383;SDS011;7790;53.022;12.968;2022-12-29T03:28:52;0.83;;;0.83;;
15383;SDS011;7790;53.022;12.968;2022-12-29T03:33:01;0.73;;;0.73;;
15383;SDS011;7790;53.022;12.968;2022-12-29T03:37:12;1.60;;;0.93;;
15383;SDS011;7790;53.022;12.968;2022-12-29T03:41:17;0.80;;;0.80;;
15383;SDS011;7790;53.022;12.968;2022-12-29T03:45:19;1.00;;;0.90;;
15383;SDS011;7790;53.022;12.968;2022-12-29T03:49:21;0.70;;;0.70;;
15383;SDS011;7790;53.022;12.968;2022-12-29T03:53:24;0.77;;;0.70;;
15383;SDS011;7790;53.022;12.968;2022-12-29T03:57:27;2.30;;;1.10;;
15383;SDS011;7790;53.022;12.968;2022-12-29T04:01:33;1.27;;;1.00;;
15383;SDS011;7790;53.022;12.968;2022-12-29T04:05:35;0.73;;;0.73;;
15383;SDS011;7790;53.022;12.968;2022-12-29T04:09:37;0.80;;;0.80;;
15383;SDS011;7790;53.022;12.968;2022-12-29T04:13:38;0.73;;;0.73;;
15383;SDS011;7790;53.022;12.968;2022-12-29T04:17:42;2.87;;;1.10;;
15383;SDS011;7790;53.022;12.968;2022-12-29T04:21:43;1.47;;;0.90;;
15383;SDS011;7790;53.022;12.968;2022-12-29T04:25:45;1.50;;;0.90;;
15383;SDS011;7790;53.022;12.968;2022-12-29T04:29:50;0.70;;;0.70;;
15383;SDS011;7790;53.022;12.968;2022-12-29T04:34:03;2.37;;;1.13;;
15383;SDS011;7790;53.022;12.968;2022-12-29T04:38:05;2.53;;;1.10;;
15383;SDS011;7790;53.022;12.968;2022-12-29T04:42:06;1.47;;;1.00;;
15383;SDS011;7790;53.022;12.968;2022-12-29T04:46:07;3.33;;;1.00;;
15383;SDS011;7790;53.022;12.968;2022-12-29T04:50:20;0.70;;;0.70;;
15383;SDS011;7790;53.022;12.968;2022-12-29T04:54:28;2.03;;;1.10;;
15383;SDS011;7790;53.022;12.968;2022-12-29T04:58:40;0.90;;;0.90;;
15383;SDS011;7790;53.022;12.968;2022-12-29T05:02:41;1.07;;;0.83;;
15383;SDS011;7790;53.022;12.968;2022-12-29T05:06:43;3.30;;;1.13;;
15383;SDS011;7790;53.022;12.968;2022-12-29T05:10:45;1.33;;;0.90;;
15383;SDS011;7790;53.022;12.968;2022-12-29T05:14:47;1.23;;;1.00;;
15383;SDS011;7790;53.022;12.968;2022-12-29T05:18:48;1.10;;;1.00;;
15383;SDS011;7790;53.022;12.968;2022-12-29T05:22:50;1.10;;;1.00;;
15383;SDS011;7790;53.022;12.968;2022-12-29T05:26:53;1.90;;;0.80;;
15383;SDS011;7790;53.022;12.968;2022-12-29T05:31:22;1.00;;;1.00;;
15383;SDS011;7790;53.022;12.968;2022-12-29T05:35:23;0.90;;;0.90;;
15383;SDS011;7790;53.022;12.968;2022-12-29T05:39:25;2.17;;;0.80;;
15383;SDS011;7790;53.022;12.968;2022-12-29T05:43:31;0.97;;;0.90;;
15383;SDS011;7790;53.022;12.968;2022-12-29T05:47:55;0.70;;;0.70;;
15383;SDS011;7790;53.022;12.968;2022-12-29T05:52:08;1.00;;;0.90;;
15383;SDS011;7790;53.022;12.968;2022-12-29T05:56:09;1.00;;;0.90;;
15383;SDS011;7790;53.022;12.968;2022-12-29T06:00:11;0.50;;;0.50;;
15383;SDS011;7790;53.022;12.968;2022-12-29T06:04:17;1.90;;;0.93;;
15383;SDS011;7790;53.022;12.968;2022-12-29T06:08:18;0.80;;;0.80;;
15383;SDS011;7790;53.022;12.968;2022-12-29T06:12:21;0.90;;;0.90;;
15383;SDS011;7790;53.022;12.968;2022-12-29T06:16:25;0.70;;;0.70;;
15383;SDS011;7790;53.022;12.968;2022-12-29T06:20:29;0.80;;;0.80;;
15383;SDS011;7790;53.022;12.968;2022-12-29T06:24:30;0.80;;;0.80;;
15383;SDS011;7790;53.022;12.968;2022-12-29T06:28:32;1.87;;;1.00;;
15383;SDS011;7790;53.022;12.968;2022-12-29T06:32:33;0.80;;;0.80;;
15383;SDS011;7790;53.022;12.968;2022-12-29T06:36:38;0.60;;;0.60;;
15383;SDS011;7790;53.022;12.968;2022-12-29T06:40:39;1.30;;;0.97;;
15383;SDS011;7790;53.022;12.968;2022-12-29T06:44:56;0.83;;;0.60;;
15383;SDS011;7790;53.022;12.968;2022-12-29T06:48:59;0.93;;;0.87;;
15383;SDS011;7790;53.022;12.968;2022-12-29T06:53:00;1.10;;;1.00;;
15383;SDS011;7790;53.022;12.968;2022-12-29T06:57:01;0.77;;;0.77;;
15383;SDS011;7790;53.022;12.968;2022-12-29T07:01:02;1.13;;;0.70;;
15383;SDS011;7790;53.022;12.968;2022-12-29T07:05:07;0.80;;;0.80;;
15383;SDS011;7790;53.022;12.968;2022-12-29T07:09:09;1.37;;;1.10;;
15383;SDS011;7790;53.022;12.968;2022-12-29T07:13:11;0.67;;;0.67;;
15383;SDS011;7790;53.022;12.968;2022-12-29T07:17:12;0.93;;;0.77;;
15383;SDS011;7790;53.022;12.968;2022-12-29T07:21:13;0.77;;;0.70;;
15383;SDS011;7790;53.022;12.968;2022-12-29T07:25:15;1.23;;;0.80;;
15383;SDS011;7790;53.022;12.968;2022-12-29T07:29:16;1.53;;;0.90;;
15383;SDS011;7790;53.022;12.968;2022-12-29T07:33:17;0.80;;;0.80;;
15383;SDS011;7790;53.022;12.968;2022-12-29T07:37:19;0.77;;;0.70;;
15383;SDS011;7790;53.022;12.968;2022-12-29T07:41:20;1.07;;;0.80;;
15383;SDS011;7790;53.022;12.968;2022-12-29T07:45:21;0.70;;;0.70;;
15383;SDS011;7790;53.022;12.968;2022-12-29T07:49:29;0.60;;;0.60;;
15383;SDS011;7790;53.022;12.968;2022-12-29T07:53:30;1.50;;;0.67;;
15383;SDS011;7790;53.022;12.968;2022-12-29T07:57:31;0.87;;;0.73;;
15383;SDS011;7790;53.022;12.968;2022-12-29T08:01:32;0.93;;;0.60;;
15383;SDS011;7790;53.022;12.968;2022-12-29T08:05:34;0.70;;;0.53;;
15383;SDS011;7790;53.022;12.968;2022-12-29T08:09:35;0.63;;;0.63;;
15383;SDS011;7790;53.022;12.968;2022-12-29T08:13:36;0.70;;;0.70;;
15383;SDS011;7790;53.022;12.968;2022-12-29T08:17:37;1.77;;;0.80;;
15383;SDS011;7790;53.022;12.968;2022-12-29T08:21:39;0.63;;;0.63;;
15383;SDS011;7790;53.022;12.968;2022-12-29T08:25:40;1.37;;;0.70;;
15383;SDS011;7790;53.022;12.968;2022-12-29T08:29:41;0.67;;;0.60;;
15383;SDS011;7790;53.022;12.968;2022-12-29T08:33:42;0.60;;;0.60;;
15383;SDS011;7790;53.022;12.968;2022-12-29T08:37:44;1.00;;;0.70;;
15383;SDS011;7790;53.022;12.968;2022-12-29T08:41:45;0.50;;;0.50;;
15383;SDS011;7790;53.022;12.968;2022-12-29T08:45:46;0.60;;;0.60;;
15383;SDS011;7790;53.022;12.968;2022-12-29T08:49:47;1.30;;;0.70;;
15383;SDS011;7790;53.022;12.968;2022-12-29T08:53:49;0.80;;;0.80;;
15383;SDS011;7790;53.022;12.968;2022-12-29T08:57:50;0.57;;;0.57;;
15383;SDS011;7790;53.022;12.968;2022-12-29T09:01:54;0.70;;;0.50;;
15383;SDS011;7790;53.022;12.968;2022-12-29T09:05:55;0.70;;;0.67;;
15383;SDS011;7790;53.022;12.968;2022-12-29T09:09:56;0.60;;;0.60;;
15383;SDS011;7790;53.022;12.968;2022-12-29T09:13:58;0.80;;;0.80;;
15383;SDS011;7790;53.022;12.968;2022-12-29T09:17:59;0.67;;;0.60;;
15383;SDS011;7790;53.022;12.968;2022-12-29T09:22:00;0.70;;;0.70;;
15383;SDS011;7790;53.022;12.968;2022-12-29T09:26:02;0.43;;;0.40;;
15383;SDS011;7790;53.022;12.968;2022-12-29T09:30:04;0.60;;;0.60;;
15383;SDS011;7790;53.022;12.968;2022-12-29T09:34:06;0.60;;;0.60;;
15383;SDS011;7790;53.022;12.968;2022-12-29T09:38:07;0.50;;;0.50;;
15383;SDS011;7790;53.022;12.968;2022-12-29T09:47:01;0.90;;;0.57;;
15383;SDS011;7790;53.022;12.968;2022-12-29T09:50:37;1.27;;;0.60;;
15383;SDS011;7790;53.022;12.968;2022-12-29T09:59:04;1.57;;;0.70;;
15383;SDS011;7790;53.022;12.968;2022-12-29T10:07:15;2.60;;;0.70;;
15383;SDS011;7790;53.022;12.968;2022-12-29T10:23:42;0.90;;;0.73;;
15383;SDS011;7790;53.022;12.968;2022-12-29T10:27:47;7.97;;;1.10;;
15383;SDS011;7790;53.022;12.968;2022-12-29T10:32:25;8.13;;;1.30;;
15383;SDS011;7790;53.022;12.968;2022-12-29T10:36:38;5.83;;;1.30;;
15383;SDS011;7790;53.022;12.968;2022-12-29T10:40:38;5.77;;;1.20;;
15383;SDS011;7790;53.022;12.968;2022-12-29T10:44:41;6.00;;;1.30;;
15383;SDS011;7790;53.022;12.968;2022-12-29T10:48:42;6.50;;;1.43;;
15383;SDS011;7790;53.022;12.968;2022-12-29T10:52:46;5.77;;;1.20;;
15383;SDS011;7790;53.022;12.968;2022-12-29T10:56:53;5.93;;;1.10;;
15383;SDS011;7790;53.022;12.968;2022-12-29T11:00:55;7.63;;;1.30;;
15383;SDS011;7790;53.022;12.968;2022-12-29T11:05:06;4.03;;;1.17;;
15383;SDS011;7790;53.022;12.968;2022-12-29T11:09:20;4.03;;;1.07;;
15383;SDS011;7790;53.022;12.968;2022-12-29T11:13:31;5.40;;;1.40;;
15383;SDS011;7790;53.022;12.968;2022-12-29T11:17:48;6.83;;;1.47;;
15383;SDS011;7790;53.022;12.968;2022-12-29T11:21:50;3.77;;;0.83;;
15383;SDS011;7790;53.022;12.968;2022-12-29T11:30:24;6.23;;;1.40;;
15383;SDS011;7790;53.022;12.968;2022-12-29T11:34:35;4.40;;;1.50;;
15383;SDS011;7790;53.022;12.968;2022-12-29T11:38:37;25.03;;;2.90;;
15383;SDS011;7790;53.022;12.968;2022-12-29T11:42:53;18.43;;;3.30;;
15383;SDS011;7790;53.022;12.968;2022-12-29T11:46:54;14.27;;;3.80;;
15383;SDS011;7790;53.022;12.968;2022-12-29T11:50:57;8.53;;;3.03;;
15383;SDS011;7790;53.022;12.968;2022-12-29T11:55:03;13.60;;;3.97;;
15383;SDS011;7790;53.022;12.968;2022-12-29T12:03:26;21.53;;;4.90;;
15383;SDS011;7790;53.022;12.968;2022-12-29T12:11:39;33.73;;;5.57;;
15383;SDS011;7790;53.022;12.968;2022-12-29T12:15:46;23.63;;;5.13;;
15383;SDS011;7790;53.022;12.968;2022-12-29T12:27:57;13.50;;;3.80;;
15383;SDS011;7790;53.022;12.968;2022-12-29T12:32:08;18.47;;;4.10;;
15383;SDS011;7790;53.022;12.968;2022-12-29T12:44:30;28.50;;;8.67;;
15383;SDS011;7790;53.022;12.968;2022-12-29T13:05:56;17.10;;;9.80;;
15383;SDS011;7790;53.022;12.968;2022-12-29T13:17:47;13.33;;;8.07;;
15383;SDS011;7790;53.022;12.968;2022-12-29T13:30:03;10.47;;;7.13;;
15383;SDS011;7790;53.022;12.968;2022-12-29T13:34:05;12.00;;;6.40;;
15383;SDS011;7790;53.022;12.968;2022-12-29T13:38:29;8.37;;;5.97;;
15383;SDS011;7790;53.022;12.968;2022-12-29T13:42:31;15.07;;;6.13;;
15383;SDS011;7790;53.022;12.968;2022-12-29T13:46:39;9.00;;;5.40;;
15383;SDS011;7790;53.022;12.968;2022-12-29T13:50:41;12.60;;;5.70;;
15383;SDS011;7790;53.022;12.968;2022-12-29T13:54:53;7.20;;;5.17;;
15383;SDS011;7790;53.022;12.968;2022-12-29T13:59:10;9.30;;;5.03;;
15383;SDS011;7790;53.022;12.968;2022-12-29T14:03:17;6.13;;;4.00;;
15383;SDS011;7790;53.022;12.968;2022-12-29T14:07:20;12.90;;;5.40;;
15383;SDS011;7790;53.022;12.968;2022-12-29T14:11:22;22.90;;;5.30;;
15383;SDS011;7790;53.022;12.968;2022-12-29T14:15:25;9.87;;;4.57;;
15383;SDS011;7790;53.022;12.968;2022-12-29T14:19:28;16.57;;;4.50;;
15383;SDS011;7790;53.022;12.968;2022-12-29T14:27:43;14.60;;;4.30;;
15383;SDS011;7790;53.022;12.968;2022-12-29T14:31:45;9.33;;;3.80;;
15383;SDS011;7790;53.022;12.968;2022-12-29T14:35:47;7.57;;;3.83;;
15383;SDS011;7790;53.022;12.968;2022-12-29T14:44:19;7.20;;;3.90;;
15383;SDS011;7790;53.022;12.968;2022-12-29T14:48:32;6.20;;;3.23;;
15383;SDS011;7790;53.022;12.968;2022-12-29T14:52:56;6.77;;;3.30;;
15383;SDS011;7790;53.022;12.968;2022-12-29T14:56:58;8.03;;;3.53;;
15383;SDS011;7790;53.022;12.968;2022-12-29T15:00:59;6.87;;;3.27;;
15383;SDS011;7790;53.022;12.968;2022-12-29T15:05:01;5.50;;;2.97;;
15383;SDS011;7790;53.022;12.968;2022-12-29T15:09:10;5.10;;;3.00;;
15383;SDS011;7790;53.022;12.968;2022-12-29T15:13:16;4.63;;;2.70;;
15383;SDS011;7790;53.022;12.968;2022-12-29T15:17:27;6.93;;;2.40;;
15383;SDS011;7790;53.022;12.968;2022-12-29T15:21:30;5.87;;;2.30;;
15383;SDS011;7790;53.022;12.968;2022-12-29T15:25:31;5.27;;;2.37;;
15383;SDS011;7790;53.022;12.968;2022-12-29T15:29:36;5.67;;;2.50;;
15383;SDS011;7790;53.022;12.968;2022-12-29T15:33:39;4.10;;;2.50;;
15383;SDS011;7790;53.022;12.968;2022-12-29T15:37:41;3.20;;;2.27;;
15383;SDS011;7790;53.022;12.968;2022-12-29T15:41:51;3.77;;;2.20;;
15383;SDS011;7790;53.022;12.968;2022-12-29T15:46:00;5.30;;;2.20;;
15383;SDS011;7790;53.022;12.968;2022-12-29T15:50:03;4.53;;;2.50;;
15383;SDS011;7790;53.022;12.968;2022-12-29T15:54:05;3.60;;;2.27;;
15383;SDS011;7790;53.022;12.968;2022-12-29T15:58:21;15.80;;;7.67;;
15383;SDS011;7790;53.022;12.968;2022-12-29T16:02:23;15.33;;;7.40;;
15383;SDS011;7790;53.022;12.968;2022-12-29T16:06:29;12.60;;;5.80;;
15383;SDS011;7790;53.022;12.968;2022-12-29T16:10:32;13.43;;;5.63;;
15383;SDS011;7790;53.022;12.968;2022-12-29T16:14:39;10.67;;;5.10;;
15383;SDS011;7790;53.022;12.968;2022-12-29T16:18:41;9.23;;;4.53;;
15383;SDS011;7790;53.022;12.968;2022-12-29T16:22:46;10.03;;;4.50;;
15383;SDS011;7790;53.022;12.968;2022-12-29T16:27:31;7.97;;;3.90;;
15383;SDS011;7790;53.022;12.968;2022-12-29T16:31:18;5.23;;;3.70;;
15383;SDS011;7790;53.022;12.968;2022-12-29T16:35:27;6.23;;;3.97;;
15383;SDS011;7790;53.022;12.968;2022-12-29T16:43:32;5.73;;;3.20;;
15383;SDS011;7790;53.022;12.968;2022-12-29T16:47:34;7.57;;;3.20;;
15383;SDS011;7790;53.022;12.968;2022-12-29T16:51:36;5.23;;;3.20;;
15383;SDS011;7790;53.022;12.968;2022-12-29T16:55:37;13.37;;;4.27;;
15383;SDS011;7790;53.022;12.968;2022-12-29T16:59:39;35.50;;;23.23;;
15383;SDS011;7790;53.022;12.968;2022-12-29T17:03:43;25.80;;;18.47;;
15383;SDS011;7790;53.022;12.968;2022-12-29T17:07:47;28.37;;;18.30;;
15383;SDS011;7790;53.022;12.968;2022-12-29T17:11:49;25.13;;;16.03;;
15383;SDS011;7790;53.022;12.968;2022-12-29T17:16:00;25.20;;;14.50;;
15383;SDS011;7790;53.022;12.968;2022-12-29T17:20:03;20.40;;;13.33;;
15383;SDS011;7790;53.022;12.968;2022-12-29T17:24:07;16.73;;;10.93;;
15383;SDS011;7790;53.022;12.968;2022-12-29T17:28:18;17.60;;;11.80;;
15383;SDS011;7790;53.022;12.968;2022-12-29T17:32:20;14.87;;;10.47;;
15383;SDS011;7790;53.022;12.968;2022-12-29T17:36:21;15.57;;;10.97;;
15383;SDS011;7790;53.022;12.968;2022-12-29T17:40:23;12.57;;;9.23;;
15383;SDS011;7790;53.022;12.968;2022-12-29T17:44:25;21.67;;;9.90;;
15383;SDS011;7790;53.022;12.968;2022-12-29T17:48:26;12.57;;;6.70;;
15383;SDS011;7790;53.022;12.968;2022-12-29T17:52:27;9.40;;;5.93;;
15383;SDS011;7790;53.022;12.968;2022-12-29T17:56:28;14.43;;;7.37;;
15383;SDS011;7790;53.022;12.968;2022-12-29T18:00:30;15.67;;;6.33;;
15383;SDS011;7790;53.022;12.968;2022-12-29T18:04:31;10.30;;;5.30;;
15383;SDS011;7790;53.022;12.968;2022-12-29T18:08:36;8.70;;;5.03;;
15383;SDS011;7790;53.022;12.968;2022-12-29T18:12:38;9.40;;;4.80;;
15383;SDS011;7790;53.022;12.968;2022-12-29T18:16:40;12.07;;;4.90;;
15383;SDS011;7790;53.022;12.968;2022-12-29T18:20:42;11.10;;;4.33;;
15383;SDS011;7790;53.022;12.968;2022-12-29T18:24:44;6.23;;;3.93;;
15383;SDS011;7790;53.022;12.968;2022-12-29T18:28:45;7.20;;;3.93;;
15383;SDS011;7790;53.022;12.968;2022-12-29T18:32:49;7.43;;;4.27;;
15383;SDS011;7790;53.022;12.968;2022-12-29T18:36:51;7.63;;;4.17;;
15383;SDS011;7790;53.022;12.968;2022-12-29T18:40:52;16.80;;;4.90;;
15383;SDS011;7790;53.022;12.968;2022-12-29T18:44:54;5.87;;;3.53;;
15383;SDS011;7790;53.022;12.968;2022-12-29T18:48:55;5.77;;;3.50;;
15383;SDS011;7790;53.022;12.968;2022-12-29T18:52:57;6.60;;;3.20;;
15383;SDS011;7790;53.022;12.968;2022-12-29T18:56:58;5.57;;;3.93;;
15383;SDS011;7790;53.022;12.968;2022-12-29T19:00:59;5.63;;;3.13;;
15383;SDS011;7790;53.022;12.968;2022-12-29T19:05:01;5.90;;;2.93;;
15383;SDS011;7790;53.022;12.968;2022-12-29T19:09:02;10.00;;;3.30;;
15383;SDS011;7790;53.022;12.968;2022-12-29T19:13:03;7.53;;;3.50;;
15383;SDS011;7790;53.022;12.968;2022-12-29T19:17:07;4.77;;;2.83;;
15383;SDS011;7790;53.022;12.968;2022-12-29T19:21:10;4.77;;;2.70;;
15383;SDS011;7790;53.022;12.968;2022-12-29T19:25:11;7.73;;;2.97;;
15383;SDS011;7790;53.022;12.968;2022-12-29T19:29:13;6.13;;;2.73;;
15383;SDS011;7790;53.022;12.968;2022-12-29T19:33:15;6.90;;;2.70;;
15383;SDS011;7790;53.022;12.968;2022-12-29T19:37:16;2.20;;;2.00;;
15383;SDS011;7790;53.022;12.968;2022-12-29T19:41:17;5.10;;;2.80;;
15383;SDS011;7790;53.022;12.968;2022-12-29T19:45:19;7.27;;;2.40;;
15383;SDS011;7790;53.022;12.968;2022-12-29T19:49:20;4.30;;;2.67;;
15383;SDS011;7790;53.022;12.968;2022-12-29T19:53:22;5.60;;;2.50;;
15383;SDS011;7790;53.022;12.968;2022-12-29T19:57:24;4.50;;;2.73;;
15383;SDS011;7790;53.022;12.968;2022-12-29T20:01:26;5.63;;;2.57;;
15383;SDS011;7790;53.022;12.968;2022-12-29T20:05:27;12.37;;;3.50;;
15383;SDS011;7790;53.022;12.968;2022-12-29T20:09:28;13.27;;;3.60;;
15383;SDS011;7790;53.022;12.968;2022-12-29T20:13:30;10.03;;;2.53;;
15383;SDS011;7790;53.022;12.968;2022-12-29T20:17:31;9.10;;;2.40;;
15383;SDS011;7790;53.022;12.968;2022-12-29T20:21:32;4.17;;;2.33;;
15383;SDS011;7790;53.022;12.968;2022-12-29T20:25:34;6.77;;;2.70;;
15383;SDS011;7790;53.022;12.968;2022-12-29T20:29:36;8.47;;;2.40;;
15383;SDS011;7790;53.022;12.968;2022-12-29T20:33:38;8.07;;;2.70;;
15383;SDS011;7790;53.022;12.968;2022-12-29T20:37:39;10.33;;;2.80;;
15383;SDS011;7790;53.022;12.968;2022-12-29T20:41:41;7.03;;;2.27;;
15383;SDS011;7790;53.022;12.968;2022-12-29T20:45:42;14.30;;;3.00;;
15383;SDS011;7790;53.022;12.968;2022-12-29T20:49:43;6.10;;;2.20;;
15383;SDS011;7790;53.022;12.968;2022-12-29T20:53:44;7.87;;;2.17;;
15383;SDS011;7790;53.022;12.968;2022-12-29T20:57:46;7.57;;;2.40;;
15383;SDS011;7790;53.022;12.968;2022-12-29T21:01:47;5.93;;;2.40;;
15383;SDS011;7790;53.022;12.968;2022-12-29T21:05:50;5.33;;;1.97;;
15383;SDS011;7790;53.022;12.968;2022-12-29T21:09:51;8.27;;;2.40;;
15383;SDS011;7790;53.022;12.968;2022-12-29T21:13:53;8.50;;;2.23;;
15383;SDS011;7790;53.022;12.968;2022-12-29T21:17:54;5.63;;;2.10;;
15383;SDS011;7790;53.022;12.968;2022-12-29T21:21:55;6.47;;;1.87;;
15383;SDS011;7790;53.022;12.968;2022-12-29T21:25:57;6.33;;;2.30;;
15383;SDS011;7790;53.022;12.968;2022-12-29T21:29:59;5.13;;;2.00;;
15383;SDS011;7790;53.022;12.968;2022-12-29T21:34:01;4.63;;;2.03;;
15383;SDS011;7790;53.022;12.968;2022-12-29T21:38:02;4.10;;;1.60;;
15383;SDS011;7790;53.022;12.968;2022-12-29T21:42:04;3.27;;;1.90;;
15383;SDS011;7790;53.022;12.968;2022-12-29T21:46:06;5.00;;;1.60;;
15383;SDS011;7790;53.022;12.968;2022-12-29T21:50:07;2.80;;;1.60;;
15383;SDS011;7790;53.022;12.968;2022-12-29T21:54:08;6.43;;;1.70;;
15383;SDS011;7790;53.022;12.968;2022-12-29T21:58:29;6.40;;;1.50;;
15383;SDS011;7790;53.022;12.968;2022-12-29T22:02:49;4.03;;;1.80;;
15383;SDS011;7790;53.022;12.968;2022-12-29T22:07:10;7.47;;;1.47;;
15383;SDS011;7790;53.022;12.968;2022-12-29T22:11:30;2.50;;;1.20;;
15383;SDS011;7790;53.022;12.968;2022-12-29T22:15:50;2.67;;;1.60;;
15383;SDS011;7790;53.022;12.968;2022-12-29T22:19:51;7.23;;;1.50;;
15383;SDS011;7790;53.022;12.968;2022-12-29T22:23:52;3.50;;;1.60;;
15383;SDS011;7790;53.022;12.968;2022-12-29T22:28:09;3.70;;;1.67;;
15383;SDS011;7790;53.022;12.968;2022-12-29T22:32:11;3.93;;;1.33;;
15383;SDS011;7790;53.022;12.968;2022-12-29T22:36:12;1.47;;;1.17;;
15383;SDS011;7790;53.022;12.968;2022-12-29T22:40:13;3.77;;;1.23;;
15383;SDS011;7790;53.022;12.968;2022-12-29T22:44:16;2.40;;;1.33;;
15383;SDS011;7790;53.022;12.968;2022-12-29T22:48:17;3.70;;;1.50;;
15383;SDS011;7790;53.022;12.968;2022-12-29T22:52:18;2.33;;;0.97;;
15383;SDS011;7790;53.022;12.968;2022-12-29T22:56:20;3.87;;;1.30;;
15383;SDS011;7790;53.022;12.968;2022-12-29T23:00:21;3.10;;;0.93;;
15383;SDS011;7790;53.022;12.968;2022-12-29T23:04:22;2.37;;;1.00;;
15383;SDS011;7790;53.022;12.968;2022-12-29T23:08:24;1.97;;;1.03;;
15383;SDS011;7790;53.022;12.968;2022-12-29T23:12:27;1.47;;;1.00;;
15383;SDS011;7790;53.022;12.968;2022-12-29T23:16:29;1.50;;;0.93;;
15383;SDS011;7790;53.022;12.968;2022-12-29T23:20:30;2.87;;;1.10;;
15383;SDS011;7790;53.022;12.968;2022-12-29T23:24:32;2.53;;;1.10;;
15383;SDS011;7790;53.022;12.968;2022-12-29T23:28:33;2.47;;;1.13;;
15383;SDS011;7790;53.022;12.968;2022-12-29T23:32:34;2.73;;;0.90;;
15383;SDS011;7790;53.022;12.968;2022-12-29T23:36:36;1.83;;;0.90;;
15383;SDS011;7790;53.022;12.968;2022-12-29T23:40:37;2.33;;;1.10;;
15383;SDS011;7790;53.022;12.968;2022-12-29T23:44:39;1.60;;;0.80;;
15383;SDS011;7790;53.022;12.968;2022-12-29T23:48:40;4.23;;;1.00;;
15383;SDS011;7790;53.022;12.968;2022-12-29T23:52:41;0.67;;;0.63;;
15383;SDS011;7790;53.022;12.968;2022-12-29T23:56:42;1.70;;;0.80;;
